createdAt,value
2019-02-02T00:00:54.219Z,1.00
2019-02-02T00:03:42.316Z,1.00
2019-02-02T00:06:30.401Z,1.00
2019-02-02T00:09:18.421Z,1.00
2019-02-02T00:12:06.446Z,1.00
2019-02-02T00:14:54.461Z,1.00
2019-02-02T00:17:42.593Z,1.00
2019-02-02T00:20:31.036Z,1.00
2019-02-02T00:23:19.166Z,1.00
2019-02-02T00:26:07.398Z,1.00
2019-02-02T00:28:55.486Z,1.00
2019-02-02T00:31:43.513Z,1.00
2019-02-02T00:34:31.537Z,1.00
2019-02-02T00:37:19.611Z,1.00
2019-02-02T00:40:07.963Z,1.00
2019-02-02T00:42:56.031Z,1.00
2019-02-02T00:45:44.186Z,1.00
2019-02-02T00:48:32.262Z,1.00
2019-02-02T00:51:20.358Z,1.00
2019-02-02T00:54:08.393Z,1.00
2019-02-02T00:56:56.403Z,1.00
2019-02-02T00:59:44.504Z,1.00
2019-02-02T01:02:32.643Z,1.00
2019-02-02T01:05:20.763Z,1.00
2019-02-02T01:08:08.890Z,1.00
2019-02-02T01:10:56.909Z,1.00
2019-02-02T01:13:37.610Z,1.00
2019-02-02T01:16:18.301Z,1.00
2019-02-02T01:18:59.110Z,1.00
2019-02-02T01:21:39.728Z,1.00
2019-02-02T01:24:21.564Z,1.00
2019-02-02T01:27:02.228Z,1.00
2019-02-02T01:29:43.369Z,1.00
2019-02-02T01:32:25.125Z,1.00
2019-02-02T01:35:05.748Z,1.00
2019-02-02T01:37:46.374Z,1.00
2019-02-02T01:40:27.116Z,1.00
2019-02-02T01:43:07.826Z,1.00
2019-02-02T01:45:51.534Z,1.00
2019-02-02T01:48:32.787Z,1.00
2019-02-02T01:51:13.301Z,1.00
2019-02-02T01:56:35.599Z,1.00
2019-02-02T01:59:16.122Z,1.00
2019-02-02T02:01:56.769Z,1.00
2019-02-02T02:04:37.556Z,1.00
2019-02-02T02:07:18.151Z,1.30
2019-02-02T02:09:58.452Z,1.00
2019-02-02T02:12:39.202Z,1.00
2019-02-02T02:15:19.975Z,1.00
2019-02-02T02:18:00.726Z,1.10
2019-02-02T02:20:41.869Z,1.00
2019-02-02T02:23:22.909Z,1.00
2019-02-02T02:26:03.718Z,1.00
2019-02-02T02:28:44.604Z,1.00
2019-02-02T02:31:25.381Z,1.10
2019-02-02T02:34:06.299Z,1.20
2019-02-02T02:36:46.901Z,2.30
2019-02-02T02:39:27.570Z,3.00
2019-02-02T02:42:07.959Z,2.80
2019-02-02T02:44:48.920Z,10.00
2019-02-02T02:47:29.485Z,11.90
2019-02-02T02:50:09.896Z,12.90
2019-02-02T02:52:50.410Z,12.90
2019-02-02T02:55:31.079Z,12.00
2019-02-02T02:58:11.739Z,9.20
2019-02-02T03:00:52.281Z,8.00
2019-02-02T03:03:35.243Z,8.80
2019-02-02T03:06:14.319Z,6.80
2019-02-02T03:09:02.393Z,6.40
2019-02-02T03:11:50.574Z,7.70
2019-02-02T03:14:38.609Z,8.20
2019-02-02T03:17:26.607Z,8.60
2019-02-02T03:20:14.812Z,11.20
2019-02-02T03:23:02.833Z,13.40
2019-02-02T03:25:50.848Z,14.20
2019-02-02T03:28:38.904Z,13.70
2019-02-02T03:31:26.896Z,14.40
2019-02-02T03:34:14.970Z,15.20
2019-02-02T03:37:03.005Z,15.50
2019-02-02T03:39:51.264Z,14.70
2019-02-02T03:42:39.425Z,14.40
2019-02-02T03:45:27.525Z,15.20
2019-02-02T03:48:15.548Z,15.20
2019-02-02T03:51:03.712Z,15.80
2019-02-02T03:53:51.743Z,21.60
2019-02-02T03:56:39.781Z,29.20
2019-02-02T03:59:27.924Z,29.90
2019-02-02T04:02:16.029Z,29.70
2019-02-02T04:05:04.779Z,31.30
2019-02-02T04:07:52.980Z,33.10
2019-02-02T04:10:40.975Z,32.40
2019-02-02T04:13:22.040Z,31.90
2019-02-02T04:16:02.723Z,33.20
2019-02-02T04:18:43.326Z,34.50
2019-02-02T04:21:24.147Z,33.30
2019-02-02T04:24:04.837Z,33.40
2019-02-02T04:26:45.639Z,33.60
2019-02-02T04:29:26.060Z,33.30
2019-02-02T04:32:06.746Z,33.40
2019-02-02T04:34:49.165Z,32.80
2019-02-02T04:37:30.273Z,31.50
2019-02-02T04:40:10.979Z,33.20
2019-02-02T04:42:51.654Z,33.20
2019-02-02T04:45:32.620Z,33.40
2019-02-02T04:48:13.229Z,32.90
2019-02-02T04:50:54.189Z,32.20
2019-02-02T04:53:34.875Z,30.80
2019-02-02T04:56:15.526Z,30.80
2019-02-02T04:58:56.207Z,29.90
2019-02-02T05:01:37.131Z,29.50
2019-02-02T05:04:18.555Z,28.60
2019-02-02T05:06:59.069Z,27.70
2019-02-02T05:09:39.503Z,28.00
2019-02-02T05:12:19.982Z,26.60
2019-02-02T05:15:00.440Z,26.50
2019-02-02T05:17:40.839Z,27.50
2019-02-02T05:20:21.501Z,26.90
2019-02-02T05:23:02.152Z,27.20
2019-02-02T05:25:42.666Z,26.20
2019-02-02T05:28:21.811Z,25.40
2019-02-02T05:31:09.816Z,25.90
2019-02-02T05:33:57.828Z,25.10
2019-02-02T05:36:45.928Z,25.80
2019-02-02T05:39:33.937Z,26.70
2019-02-02T05:42:21.959Z,28.40
2019-02-02T05:45:10.713Z,27.90
2019-02-02T05:47:58.796Z,28.50
2019-02-02T05:50:46.837Z,27.50
2019-02-02T05:53:34.930Z,27.60
2019-02-02T05:56:22.932Z,27.50
2019-02-02T05:59:11.004Z,28.40
2019-02-02T06:01:59.039Z,29.80
2019-02-02T06:04:47.035Z,30.00
2019-02-02T06:07:35.061Z,32.50
2019-02-02T06:10:42.233Z,32.80
2019-02-02T06:13:22.997Z,32.20
2019-02-02T06:16:03.696Z,32.30
2019-02-02T06:18:44.447Z,31.80
2019-02-02T06:21:25.120Z,31.90
2019-02-02T06:24:06.005Z,32.30
2019-02-02T06:26:46.732Z,32.20
2019-02-02T06:29:27.339Z,31.80
2019-02-02T06:32:11.968Z,32.20
2019-02-02T06:34:50.418Z,35.30
2019-02-02T06:37:34.705Z,36.20
2019-02-02T06:40:16.706Z,36.00
2019-02-02T06:42:58.021Z,34.00
2019-02-02T06:45:39.461Z,33.90
2019-02-02T06:53:55.466Z,31.10
2019-02-02T06:56:37.562Z,31.40
2019-02-02T06:59:18.992Z,30.20
2019-02-02T07:02:19.378Z,27.90
2019-02-02T07:07:45.620Z,27.90
2019-02-02T07:10:26.075Z,26.20
2019-02-02T07:13:06.844Z,26.30
2019-02-02T07:15:48.037Z,25.10
2019-02-02T07:18:29.501Z,24.20
2019-02-02T07:21:13.667Z,25.20
2019-02-02T07:23:54.921Z,25.90
2019-02-02T07:26:36.353Z,24.90
2019-02-02T07:29:19.699Z,24.30
2019-02-02T07:49:38.682Z,15.80
2019-02-02T07:52:19.101Z,13.20
2019-02-02T07:55:02.783Z,11.80
2019-02-02T07:57:43.563Z,10.80
2019-02-02T08:00:24.340Z,9.30
2019-02-02T08:03:05.181Z,7.20
2019-02-02T08:05:45.949Z,6.60
2019-02-02T08:08:26.726Z,5.20
2019-02-02T08:11:07.280Z,4.10
2019-02-02T08:13:48.361Z,3.00
2019-02-02T08:16:29.174Z,2.00
2019-02-02T08:19:10.773Z,1.00
2019-02-02T08:21:51.913Z,1.00
2019-02-02T08:24:33.425Z,1.00
2019-02-02T08:27:14.506Z,1.00
2019-02-02T08:32:39.459Z,1.00
2019-02-02T08:35:20.828Z,1.00
2019-02-02T08:38:03.003Z,1.00
2019-02-02T08:40:44.903Z,1.00
2019-02-02T08:43:29.659Z,1.00
2019-02-02T08:46:11.224Z,1.00
2019-02-02T08:48:53.224Z,1.00
2019-02-02T08:51:33.600Z,1.00
2019-02-02T08:54:14.223Z,1.00
2019-02-02T09:14:29.405Z,1.00
2019-02-02T09:56:44.872Z,1.00
2019-02-02T09:59:45.959Z,1.00
2019-02-02T10:05:52.847Z,1.00
2019-02-02T19:18:46.506Z,1.00
2019-02-02T20:23:10.072Z,1.00
2019-02-02T20:25:50.700Z,1.00
2019-02-02T20:35:05.812Z,1.00
2019-02-02T20:40:33.965Z,1.00
2019-02-02T20:49:15.504Z,1.00
2019-02-02T20:51:56.257Z,1.00
2019-02-02T20:54:37.386Z,1.00
2019-02-02T20:57:18.061Z,1.00
2019-02-02T20:59:59.953Z,1.00
2019-02-02T21:02:41.174Z,1.00
2019-02-02T21:05:22.069Z,1.00
2019-02-02T21:10:59.382Z,1.00
2019-02-02T21:13:40.604Z,2.00
2019-02-02T21:16:28.836Z,4.50
2019-02-02T21:19:11.817Z,7.20
2019-02-02T21:21:54.999Z,11.20
2019-02-02T21:25:02.938Z,14.10
2019-02-02T21:28:07.617Z,15.60
2019-02-02T21:31:08.802Z,16.90
2019-02-02T21:37:15.117Z,17.80
2019-02-02T21:42:40.117Z,17.60
2019-02-02T21:53:56.176Z,16.90
2019-02-02T22:20:24.826Z,17.00
2019-02-02T23:44:20.720Z,14.60
2019-02-02T23:49:50.478Z,14.80
